Mejorada del Campo, Spain
Current Conditions -  °F | °C
As of 4:30 PM on Friday 24 Oct 2014 (Local Time) from LEMD Reporting Station
Clear Clear  
Wind Chill: 82°   Ceiling: Unl
Heat Index: 82°   Visibility: 6mi
Dew Point: 45°   Wind: 7mph
Humidity: 26%   Direction: 50°NE
Pressure: 30.06"   Gusts: NA
Location:  40.39°N, 3.48°W
Report Text: LEMD 241430Z 05006KT 350V100 CAVOK 28/07 Q1018 NOSIG
Loading
Personal Weather Stations






























Interactive Weather Map
Tropical Storm Tracking
New forecast layout! Learn more

10-Day Weather Forecast

Advertisements
Track Severe Weather on mobile